sensor_id;sensor_type;location;lat;lon;timestamp;temperature;humidity
7016;DHT22;3548;48.402;9.990;2023-05-07T00:01:16;13.40;99.90
7016;DHT22;3548;48.402;9.990;2023-05-07T00:03:42;13.40;99.90
7016;DHT22;3548;48.402;9.990;2023-05-07T00:06:07;13.30;99.90
7016;DHT22;3548;48.402;9.990;2023-05-07T00:08:33;13.30;99.90
7016;DHT22;3548;48.402;9.990;2023-05-07T00:10:58;13.20;99.90
7016;DHT22;3548;48.402;9.990;2023-05-07T00:13:24;13.20;99.90
7016;DHT22;3548;48.402;9.990;2023-05-07T00:15:50;13.20;99.90
7016;DHT22;3548;48.402;9.990;2023-05-07T00:18:15;13.20;99.90
7016;DHT22;3548;48.402;9.990;2023-05-07T00:20:41;13.20;99.90
7016;DHT22;3548;48.402;9.990;2023-05-07T00:23:06;13.20;99.90
7016;DHT22;3548;48.402;9.990;2023-05-07T00:25:32;13.20;99.90
7016;DHT22;3548;48.402;9.990;2023-05-07T00:27:57;13.20;99.90
7016;DHT22;3548;48.402;9.990;2023-05-07T00:30:28;13.20;99.90
7016;DHT22;3548;48.402;9.990;2023-05-07T00:32:54;13.10;99.90
7016;DHT22;3548;48.402;9.990;2023-05-07T00:35:20;13.10;99.90
7016;DHT22;3548;48.402;9.990;2023-05-07T00:37:45;13.10;99.90
7016;DHT22;3548;48.402;9.990;2023-05-07T00:40:11;13.10;99.90
7016;DHT22;3548;48.402;9.990;2023-05-07T00:42:36;13.00;99.90
7016;DHT22;3548;48.402;9.990;2023-05-07T00:45:02;13.00;99.90
7016;DHT22;3548;48.402;9.990;2023-05-07T00:47:28;13.00;99.90
7016;DHT22;3548;48.402;9.990;2023-05-07T00:49:54;13.00;99.90
7016;DHT22;3548;48.402;9.990;2023-05-07T00:52:21;13.00;99.90
7016;DHT22;3548;48.402;9.990;2023-05-07T00:54:49;13.00;99.90
7016;DHT22;3548;48.402;9.990;2023-05-07T00:57:15;12.90;99.90
7016;DHT22;3548;48.402;9.990;2023-05-07T00:59:41;12.90;99.90
7016;DHT22;3548;48.402;9.990;2023-05-07T01:02:07;12.90;99.90
7016;DHT22;3548;48.402;9.990;2023-05-07T01:04:32;12.80;99.90
7016;DHT22;3548;48.402;9.990;2023-05-07T01:06:58;12.80;99.90
7016;DHT22;3548;48.402;9.990;2023-05-07T01:09:25;12.70;99.90
7016;DHT22;3548;48.402;9.990;2023-05-07T01:11:52;12.70;99.90
7016;DHT22;3548;48.402;9.990;2023-05-07T01:14:19;12.70;99.90
7016;DHT22;3548;48.402;9.990;2023-05-07T01:16:46;12.70;99.90
7016;DHT22;3548;48.402;9.990;2023-05-07T01:19:12;12.70;99.90
7016;DHT22;3548;48.402;9.990;2023-05-07T01:21:44;12.70;99.90
7016;DHT22;3548;48.402;9.990;2023-05-07T01:24:11;12.70;99.90
7016;DHT22;3548;48.402;9.990;2023-05-07T01:26:37;12.60;99.90
7016;DHT22;3548;48.402;9.990;2023-05-07T01:29:03;12.60;99.90
7016;DHT22;3548;48.402;9.990;2023-05-07T01:31:28;12.60;99.90
7016;DHT22;3548;48.402;9.990;2023-05-07T01:33:56;12.60;99.90
7016;DHT22;3548;48.402;9.990;2023-05-07T01:36:23;12.60;99.90
7016;DHT22;3548;48.402;9.990;2023-05-07T01:38:51;12.60;99.90
7016;DHT22;3548;48.402;9.990;2023-05-07T01:41:18;12.60;99.90
7016;DHT22;3548;48.402;9.990;2023-05-07T01:43:44;12.50;99.90
7016;DHT22;3548;48.402;9.990;2023-05-07T01:46:10;12.50;99.90
7016;DHT22;3548;48.402;9.990;2023-05-07T01:48:37;12.50;99.90
7016;DHT22;3548;48.402;9.990;2023-05-07T01:51:03;12.50;99.90
7016;DHT22;3548;48.402;9.990;2023-05-07T01:53:29;12.40;99.90
7016;DHT22;3548;48.402;9.990;2023-05-07T01:56:00;12.40;99.90
7016;DHT22;3548;48.402;9.990;2023-05-07T01:58:25;12.30;99.90
7016;DHT22;3548;48.402;9.990;2023-05-07T02:00:51;12.30;99.90
7016;DHT22;3548;48.402;9.990;2023-05-07T02:03:17;12.30;99.90
7016;DHT22;3548;48.402;9.990;2023-05-07T02:05:42;12.30;99.90
7016;DHT22;3548;48.402;9.990;2023-05-07T02:08:08;12.30;99.90
7016;DHT22;3548;48.402;9.990;2023-05-07T02:10:33;12.30;99.90
7016;DHT22;3548;48.402;9.990;2023-05-07T02:12:59;12.30;99.90
7016;DHT22;3548;48.402;9.990;2023-05-07T02:15:27;12.20;99.90
7016;DHT22;3548;48.402;9.990;2023-05-07T02:18:00;12.20;99.90
7016;DHT22;3548;48.402;9.990;2023-05-07T02:20:26;12.20;99.90
7016;DHT22;3548;48.402;9.990;2023-05-07T02:22:52;12.20;99.90
7016;DHT22;3548;48.402;9.990;2023-05-07T02:25:18;12.10;99.90
7016;DHT22;3548;48.402;9.990;2023-05-07T02:27:43;12.10;99.90
7016;DHT22;3548;48.402;9.990;2023-05-07T02:30:09;12.00;99.90
7016;DHT22;3548;48.402;9.990;2023-05-07T02:32:35;12.00;99.90
7016;DHT22;3548;48.402;9.990;2023-05-07T02:35:00;12.00;99.90
7016;DHT22;3548;48.402;9.990;2023-05-07T02:37:26;12.00;99.90
7016;DHT22;3548;48.402;9.990;2023-05-07T02:39:51;12.00;99.90
7016;DHT22;3548;48.402;9.990;2023-05-07T02:42:17;12.00;99.90
7016;DHT22;3548;48.402;9.990;2023-05-07T02:44:42;12.00;99.90
7016;DHT22;3548;48.402;9.990;2023-05-07T02:47:08;12.00;99.90
7016;DHT22;3548;48.402;9.990;2023-05-07T02:49:34;12.00;99.90
7016;DHT22;3548;48.402;9.990;2023-05-07T02:52:00;12.00;99.90
7016;DHT22;3548;48.402;9.990;2023-05-07T02:54:26;12.00;99.90
7016;DHT22;3548;48.402;9.990;2023-05-07T02:56:51;12.00;99.90
7016;DHT22;3548;48.402;9.990;2023-05-07T02:59:17;11.90;99.90
7016;DHT22;3548;48.402;9.990;2023-05-07T03:01:42;11.90;99.90
7016;DHT22;3548;48.402;9.990;2023-05-07T03:04:10;11.90;99.90
7016;DHT22;3548;48.402;9.990;2023-05-07T03:06:36;11.80;99.90
7016;DHT22;3548;48.402;9.990;2023-05-07T03:09:02;11.80;99.90
7016;DHT22;3548;48.402;9.990;2023-05-07T03:11:27;11.80;99.90
7016;DHT22;3548;48.402;9.990;2023-05-07T03:13:53;11.80;99.90
7016;DHT22;3548;48.402;9.990;2023-05-07T03:16:18;11.80;99.90
7016;DHT22;3548;48.402;9.990;2023-05-07T03:18:44;11.80;99.90
7016;DHT22;3548;48.402;9.990;2023-05-07T03:21:09;11.80;99.90
7016;DHT22;3548;48.402;9.990;2023-05-07T03:23:35;11.70;99.90
7016;DHT22;3548;48.402;9.990;2023-05-07T03:26:01;11.70;99.90
7016;DHT22;3548;48.402;9.990;2023-05-07T03:28:26;11.70;99.90
7016;DHT22;3548;48.402;9.990;2023-05-07T03:30:52;11.70;99.90
7016;DHT22;3548;48.402;9.990;2023-05-07T03:33:17;11.60;99.90
7016;DHT22;3548;48.402;9.990;2023-05-07T03:35:43;11.60;99.90
7016;DHT22;3548;48.402;9.990;2023-05-07T03:38:08;11.60;99.90
7016;DHT22;3548;48.402;9.990;2023-05-07T03:40:34;11.50;99.90
7016;DHT22;3548;48.402;9.990;2023-05-07T03:43:00;11.50;99.90
7016;DHT22;3548;48.402;9.990;2023-05-07T03:45:26;11.50;99.90
7016;DHT22;3548;48.402;9.990;2023-05-07T03:47:51;11.50;99.90
7016;DHT22;3548;48.402;9.990;2023-05-07T03:50:17;11.50;99.90
7016;DHT22;3548;48.402;9.990;2023-05-07T03:52:42;11.50;99.90
7016;DHT22;3548;48.402;9.990;2023-05-07T03:55:09;11.60;99.90
7016;DHT22;3548;48.402;9.990;2023-05-07T03:57:34;11.60;99.90
7016;DHT22;3548;48.402;9.990;2023-05-07T04:00:00;11.60;99.90
7016;DHT22;3548;48.402;9.990;2023-05-07T04:02:26;11.60;99.90
7016;DHT22;3548;48.402;9.990;2023-05-07T04:04:51;11.60;99.90
7016;DHT22;3548;48.402;9.990;2023-05-07T04:07:17;11.70;99.90
7016;DHT22;3548;48.402;9.990;2023-05-07T04:09:42;11.70;99.90
7016;DHT22;3548;48.402;9.990;2023-05-07T04:12:08;11.70;99.90
7016;DHT22;3548;48.402;9.990;2023-05-07T04:14:33;11.70;99.90
7016;DHT22;3548;48.402;9.990;2023-05-07T04:16:59;11.70;99.90
7016;DHT22;3548;48.402;9.990;2023-05-07T04:19:25;11.70;99.90
7016;DHT22;3548;48.402;9.990;2023-05-07T04:21:50;11.80;99.90
7016;DHT22;3548;48.402;9.990;2023-05-07T04:24:16;11.90;99.90
7016;DHT22;3548;48.402;9.990;2023-05-07T04:26:41;12.00;99.90
7016;DHT22;3548;48.402;9.990;2023-05-07T04:29:07;12.10;99.90
7016;DHT22;3548;48.402;9.990;2023-05-07T04:31:32;12.10;99.90
7016;DHT22;3548;48.402;9.990;2023-05-07T04:33:58;12.10;99.90
7016;DHT22;3548;48.402;9.990;2023-05-07T04:36:24;12.10;99.90
7016;DHT22;3548;48.402;9.990;2023-05-07T04:38:53;12.00;99.90
7016;DHT22;3548;48.402;9.990;2023-05-07T04:41:19;12.00;99.90
7016;DHT22;3548;48.402;9.990;2023-05-07T04:43:44;12.00;99.90
7016;DHT22;3548;48.402;9.990;2023-05-07T04:46:10;12.00;99.90
7016;DHT22;3548;48.402;9.990;2023-05-07T04:48:36;12.10;99.90
7016;DHT22;3548;48.402;9.990;2023-05-07T04:51:02;12.10;99.90
7016;DHT22;3548;48.402;9.990;2023-05-07T04:53:27;12.20;99.90
7016;DHT22;3548;48.402;9.990;2023-05-07T04:55:56;12.20;99.90
7016;DHT22;3548;48.402;9.990;2023-05-07T04:58:22;12.40;99.90
7016;DHT22;3548;48.402;9.990;2023-05-07T05:00:49;12.50;99.90
7016;DHT22;3548;48.402;9.990;2023-05-07T05:03:14;12.70;99.90
7016;DHT22;3548;48.402;9.990;2023-05-07T05:05:40;12.90;99.90
7016;DHT22;3548;48.402;9.990;2023-05-07T05:08:06;13.00;99.90
7016;DHT22;3548;48.402;9.990;2023-05-07T05:10:31;13.10;99.90
7016;DHT22;3548;48.402;9.990;2023-05-07T05:12:57;13.40;99.90
7016;DHT22;3548;48.402;9.990;2023-05-07T05:15:22;13.50;99.90
7016;DHT22;3548;48.402;9.990;2023-05-07T05:17:48;13.70;99.90
7016;DHT22;3548;48.402;9.990;2023-05-07T05:20:14;13.80;99.90
7016;DHT22;3548;48.402;9.990;2023-05-07T05:22:41;13.90;99.90
7016;DHT22;3548;48.402;9.990;2023-05-07T05:25:07;14.00;99.90
7016;DHT22;3548;48.402;9.990;2023-05-07T05:27:33;14.10;99.90
7016;DHT22;3548;48.402;9.990;2023-05-07T05:29:58;14.20;99.90
7016;DHT22;3548;48.402;9.990;2023-05-07T05:32:24;14.40;99.90
7016;DHT22;3548;48.402;9.990;2023-05-07T05:34:49;14.50;99.90
7016;DHT22;3548;48.402;9.990;2023-05-07T05:37:15;14.50;99.90
7016;DHT22;3548;48.402;9.990;2023-05-07T05:39:40;14.60;99.90
7016;DHT22;3548;48.402;9.990;2023-05-07T05:42:06;14.60;99.90
7016;DHT22;3548;48.402;9.990;2023-05-07T05:44:32;14.60;99.90
7016;DHT22;3548;48.402;9.990;2023-05-07T05:46:57;14.60;99.90
7016;DHT22;3548;48.402;9.990;2023-05-07T05:49:24;14.60;99.90
7016;DHT22;3548;48.402;9.990;2023-05-07T05:51:50;14.60;99.90
7016;DHT22;3548;48.402;9.990;2023-05-07T05:54:15;14.70;99.90
7016;DHT22;3548;48.402;9.990;2023-05-07T05:56:41;14.80;99.90
7016;DHT22;3548;48.402;9.990;2023-05-07T05:59:07;14.90;99.90
7016;DHT22;3548;48.402;9.990;2023-05-07T06:01:33;14.90;99.90
7016;DHT22;3548;48.402;9.990;2023-05-07T06:03:58;15.10;99.90
7016;DHT22;3548;48.402;9.990;2023-05-07T06:06:24;15.10;99.90
7016;DHT22;3548;48.402;9.990;2023-05-07T06:08:49;15.10;99.90
7016;DHT22;3548;48.402;9.990;2023-05-07T06:11:15;15.20;99.90
7016;DHT22;3548;48.402;9.990;2023-05-07T06:13:41;15.30;99.90
7016;DHT22;3548;48.402;9.990;2023-05-07T06:16:06;15.40;99.90
7016;DHT22;3548;48.402;9.990;2023-05-07T06:18:32;15.50;99.90
7016;DHT22;3548;48.402;9.990;2023-05-07T06:20:57;15.60;99.90
7016;DHT22;3548;48.402;9.990;2023-05-07T06:23:23;15.70;99.90
7016;DHT22;3548;48.402;9.990;2023-05-07T06:25:49;15.80;99.90
7016;DHT22;3548;48.402;9.990;2023-05-07T06:28:15;15.80;99.90
7016;DHT22;3548;48.402;9.990;2023-05-07T06:30:41;15.80;99.90
7016;DHT22;3548;48.402;9.990;2023-05-07T06:33:06;15.90;99.90
7016;DHT22;3548;48.402;9.990;2023-05-07T06:35:32;16.00;99.90
7016;DHT22;3548;48.402;9.990;2023-05-07T06:37:58;16.10;99.90
7016;DHT22;3548;48.402;9.990;2023-05-07T06:40:23;16.30;99.90
7016;DHT22;3548;48.402;9.990;2023-05-07T06:42:49;16.30;99.90
7016;DHT22;3548;48.402;9.990;2023-05-07T06:45:14;16.50;99.90
7016;DHT22;3548;48.402;9.990;2023-05-07T06:47:40;16.60;99.90
7016;DHT22;3548;48.402;9.990;2023-05-07T06:50:06;16.80;99.90
7016;DHT22;3548;48.402;9.990;2023-05-07T06:52:31;16.90;99.90
7016;DHT22;3548;48.402;9.990;2023-05-07T06:54:57;17.00;99.90
7016;DHT22;3548;48.402;9.990;2023-05-07T06:57:23;17.00;99.90
7016;DHT22;3548;48.402;9.990;2023-05-07T06:59:49;17.10;99.90
7016;DHT22;3548;48.402;9.990;2023-05-07T07:02:14;17.10;99.90
7016;DHT22;3548;48.402;9.990;2023-05-07T07:04:40;17.20;99.90
7016;DHT22;3548;48.402;9.990;2023-05-07T07:07:07;17.30;99.90
7016;DHT22;3548;48.402;9.990;2023-05-07T07:09:33;17.30;99.90
7016;DHT22;3548;48.402;9.990;2023-05-07T07:11:58;17.40;99.90
7016;DHT22;3548;48.402;9.990;2023-05-07T07:14:24;17.40;99.90
7016;DHT22;3548;48.402;9.990;2023-05-07T07:16:49;17.50;99.90
7016;DHT22;3548;48.402;9.990;2023-05-07T07:19:15;17.60;99.90
7016;DHT22;3548;48.402;9.990;2023-05-07T07:21:41;17.70;99.90
7016;DHT22;3548;48.402;9.990;2023-05-07T07:24:07;17.70;99.90
7016;DHT22;3548;48.402;9.990;2023-05-07T07:26:32;17.80;99.90
7016;DHT22;3548;48.402;9.990;2023-05-07T07:28:58;17.80;99.90
7016;DHT22;3548;48.402;9.990;2023-05-07T07:31:23;17.70;99.90
7016;DHT22;3548;48.402;9.990;2023-05-07T07:33:49;17.70;99.90
7016;DHT22;3548;48.402;9.990;2023-05-07T07:36:15;17.80;99.90
7016;DHT22;3548;48.402;9.990;2023-05-07T07:38:41;17.90;99.90
7016;DHT22;3548;48.402;9.990;2023-05-07T07:41:08;18.10;99.90
7016;DHT22;3548;48.402;9.990;2023-05-07T07:43:33;18.20;99.90
7016;DHT22;3548;48.402;9.990;2023-05-07T07:45:59;18.40;99.90
7016;DHT22;3548;48.402;9.990;2023-05-07T07:48:25;18.50;99.90
7016;DHT22;3548;48.402;9.990;2023-05-07T07:50:50;18.60;99.90
7016;DHT22;3548;48.402;9.990;2023-05-07T07:53:19;18.60;99.90
7016;DHT22;3548;48.402;9.990;2023-05-07T07:55:44;18.70;99.90
7016;DHT22;3548;48.402;9.990;2023-05-07T07:58:10;18.90;99.90
7016;DHT22;3548;48.402;9.990;2023-05-07T08:00:36;19.00;99.90
7016;DHT22;3548;48.402;9.990;2023-05-07T08:03:02;19.00;99.90
7016;DHT22;3548;48.402;9.990;2023-05-07T08:05:28;19.20;99.90
7016;DHT22;3548;48.402;9.990;2023-05-07T08:07:54;19.30;99.90
7016;DHT22;3548;48.402;9.990;2023-05-07T08:10:21;19.50;99.90
7016;DHT22;3548;48.402;9.990;2023-05-07T08:12:50;19.70;99.90
7016;DHT22;3548;48.402;9.990;2023-05-07T08:15:16;19.70;99.90
7016;DHT22;3548;48.402;9.990;2023-05-07T08:17:42;19.70;99.90
7016;DHT22;3548;48.402;9.990;2023-05-07T08:20:07;19.70;99.90
7016;DHT22;3548;48.402;9.990;2023-05-07T08:22:36;19.70;99.90
7016;DHT22;3548;48.402;9.990;2023-05-07T08:25:02;19.70;99.90
7016;DHT22;3548;48.402;9.990;2023-05-07T08:27:28;19.70;99.90
7016;DHT22;3548;48.402;9.990;2023-05-07T08:29:54;19.80;99.90
7016;DHT22;3548;48.402;9.990;2023-05-07T08:32:20;20.00;99.90
7016;DHT22;3548;48.402;9.990;2023-05-07T08:34:45;20.10;99.90
7016;DHT22;3548;48.402;9.990;2023-05-07T08:37:11;20.30;99.90
7016;DHT22;3548;48.402;9.990;2023-05-07T08:39:37;20.40;99.90
7016;DHT22;3548;48.402;9.990;2023-05-07T08:42:03;20.50;99.90
7016;DHT22;3548;48.402;9.990;2023-05-07T08:44:33;20.50;99.90
7016;DHT22;3548;48.402;9.990;2023-05-07T08:47:01;20.60;99.90
7016;DHT22;3548;48.402;9.990;2023-05-07T08:49:27;20.60;99.90
7016;DHT22;3548;48.402;9.990;2023-05-07T08:51:53;20.60;99.90
7016;DHT22;3548;48.402;9.990;2023-05-07T08:54:20;20.60;99.90
7016;DHT22;3548;48.402;9.990;2023-05-07T08:56:46;20.60;99.90
7016;DHT22;3548;48.402;9.990;2023-05-07T08:59:12;20.70;99.90
7016;DHT22;3548;48.402;9.990;2023-05-07T09:01:37;20.80;99.90
7016;DHT22;3548;48.402;9.990;2023-05-07T09:04:04;21.00;99.90
7016;DHT22;3548;48.402;9.990;2023-05-07T09:06:31;21.10;99.90
7016;DHT22;3548;48.402;9.990;2023-05-07T09:08:56;21.20;99.90
7016;DHT22;3548;48.402;9.990;2023-05-07T09:11:24;21.20;99.90
7016;DHT22;3548;48.402;9.990;2023-05-07T09:13:54;21.40;99.90
7016;DHT22;3548;48.402;9.990;2023-05-07T09:16:21;21.40;99.90
7016;DHT22;3548;48.402;9.990;2023-05-07T09:18:48;21.40;99.90
7016;DHT22;3548;48.402;9.990;2023-05-07T09:21:17;21.40;99.90
7016;DHT22;3548;48.402;9.990;2023-05-07T09:23:42;21.40;99.90
7016;DHT22;3548;48.402;9.990;2023-05-07T09:26:08;21.50;99.90
7016;DHT22;3548;48.402;9.990;2023-05-07T09:28:44;21.70;99.90
7016;DHT22;3548;48.402;9.990;2023-05-07T09:31:10;22.00;99.80
7016;DHT22;3548;48.402;9.990;2023-05-07T09:33:36;22.00;99.90
7016;DHT22;3548;48.402;9.990;2023-05-07T09:36:03;22.10;99.90
7016;DHT22;3548;48.402;9.990;2023-05-07T09:38:30;22.40;99.30
7016;DHT22;3548;48.402;9.990;2023-05-07T09:43:36;22.80;98.90
7016;DHT22;3548;48.402;9.990;2023-05-07T09:46:08;22.90;99.40
7016;DHT22;3548;48.402;9.990;2023-05-07T09:48:41;22.80;98.10
7016;DHT22;3548;48.402;9.990;2023-05-07T09:51:30;22.70;97.60
7016;DHT22;3548;48.402;9.990;2023-05-07T09:53:58;22.70;98.10
7016;DHT22;3548;48.402;9.990;2023-05-07T09:56:26;23.00;97.80
7016;DHT22;3548;48.402;9.990;2023-05-07T09:58:54;23.20;97.20
7016;DHT22;3548;48.402;9.990;2023-05-07T10:01:20;23.50;96.90
7016;DHT22;3548;48.402;9.990;2023-05-07T10:03:48;23.60;97.30
7016;DHT22;3548;48.402;9.990;2023-05-07T10:06:15;23.40;96.60
7016;DHT22;3548;48.402;9.990;2023-05-07T10:08:42;22.90;96.90
7016;DHT22;3548;48.402;9.990;2023-05-07T10:11:09;22.70;97.40
7016;DHT22;3548;48.402;9.990;2023-05-07T10:13:35;22.50;97.30
7016;DHT22;3548;48.402;9.990;2023-05-07T10:16:04;22.30;97.70
7016;DHT22;3548;48.402;9.990;2023-05-07T10:18:33;22.30;97.60
7016;DHT22;3548;48.402;9.990;2023-05-07T10:21:21;22.40;96.60
7016;DHT22;3548;48.402;9.990;2023-05-07T10:23:57;22.50;96.60
7016;DHT22;3548;48.402;9.990;2023-05-07T10:26:24;22.50;96.70
7016;DHT22;3548;48.402;9.990;2023-05-07T10:28:54;22.40;96.80
7016;DHT22;3548;48.402;9.990;2023-05-07T10:31:48;22.60;97.10
7016;DHT22;3548;48.402;9.990;2023-05-07T10:34:20;22.70;97.00
7016;DHT22;3548;48.402;9.990;2023-05-07T10:36:47;22.90;97.00
7016;DHT22;3548;48.402;9.990;2023-05-07T10:39:13;23.00;96.80
7016;DHT22;3548;48.402;9.990;2023-05-07T10:41:39;23.00;96.20
7016;DHT22;3548;48.402;9.990;2023-05-07T10:44:05;22.80;95.90
7016;DHT22;3548;48.402;9.990;2023-05-07T10:46:31;22.60;96.20
7016;DHT22;3548;48.402;9.990;2023-05-07T10:51:26;22.40;96.50
7016;DHT22;3548;48.402;9.990;2023-05-07T10:56:40;22.30;97.30
7016;DHT22;3548;48.402;9.990;2023-05-07T11:02:02;22.10;97.50
7016;DHT22;3548;48.402;9.990;2023-05-07T11:04:29;22.10;97.50
7016;DHT22;3548;48.402;9.990;2023-05-07T11:09:55;22.50;97.70
7016;DHT22;3548;48.402;9.990;2023-05-07T11:15:13;23.00;97.40
7016;DHT22;3548;48.402;9.990;2023-05-07T11:18:00;23.10;96.90
7016;DHT22;3548;48.402;9.990;2023-05-07T11:20:45;23.10;96.90
7016;DHT22;3548;48.402;9.990;2023-05-07T11:26:09;22.50;97.30
7016;DHT22;3548;48.402;9.990;2023-05-07T11:28:42;22.20;98.20
7016;DHT22;3548;48.402;9.990;2023-05-07T11:31:09;22.10;98.20
7016;DHT22;3548;48.402;9.990;2023-05-07T11:33:36;22.20;98.50
7016;DHT22;3548;48.402;9.990;2023-05-07T11:36:05;22.40;97.50
7016;DHT22;3548;48.402;9.990;2023-05-07T11:38:34;22.50;97.30
7016;DHT22;3548;48.402;9.990;2023-05-07T11:41:00;22.60;97.10
7016;DHT22;3548;48.402;9.990;2023-05-07T11:43:33;22.70;97.40
7016;DHT22;3548;48.402;9.990;2023-05-07T11:46:09;22.90;97.40
7016;DHT22;3548;48.402;9.990;2023-05-07T11:48:35;22.90;96.90
7016;DHT22;3548;48.402;9.990;2023-05-07T11:51:03;22.80;96.60
7016;DHT22;3548;48.402;9.990;2023-05-07T11:53:36;22.70;97.10
7016;DHT22;3548;48.402;9.990;2023-05-07T11:56:16;23.00;96.60
7016;DHT22;3548;48.402;9.990;2023-05-07T11:58:43;23.30;96.00
7016;DHT22;3548;48.402;9.990;2023-05-07T12:01:11;23.70;95.30
7016;DHT22;3548;48.402;9.990;2023-05-07T12:03:39;24.00;94.90
7016;DHT22;3548;48.402;9.990;2023-05-07T12:06:08;24.20;93.90
7016;DHT22;3548;48.402;9.990;2023-05-07T12:08:37;24.30;93.40
7016;DHT22;3548;48.402;9.990;2023-05-07T12:11:03;24.40;93.20
7016;DHT22;3548;48.402;9.990;2023-05-07T12:13:32;24.40;93.30
7016;DHT22;3548;48.402;9.990;2023-05-07T12:15:57;24.30;92.90
7016;DHT22;3548;48.402;9.990;2023-05-07T12:18:23;24.10;92.70
7016;DHT22;3548;48.402;9.990;2023-05-07T12:20:50;23.90;92.90
7016;DHT22;3548;48.402;9.990;2023-05-07T12:23:16;23.80;92.70
7016;DHT22;3548;48.402;9.990;2023-05-07T12:25:43;23.70;92.90
7016;DHT22;3548;48.402;9.990;2023-05-07T12:28:16;23.70;93.00
7016;DHT22;3548;48.402;9.990;2023-05-07T12:30:43;23.70;92.70
7016;DHT22;3548;48.402;9.990;2023-05-07T12:33:09;23.90;92.70
7016;DHT22;3548;48.402;9.990;2023-05-07T12:35:40;24.00;92.30
7016;DHT22;3548;48.402;9.990;2023-05-07T12:38:12;24.10;92.50
7016;DHT22;3548;48.402;9.990;2023-05-07T12:40:38;24.20;91.90
7016;DHT22;3548;48.402;9.990;2023-05-07T12:43:04;24.20;91.60
7016;DHT22;3548;48.402;9.990;2023-05-07T12:45:30;24.10;91.10
7016;DHT22;3548;48.402;9.990;2023-05-07T12:47:56;23.90;91.30
7016;DHT22;3548;48.402;9.990;2023-05-07T12:50:26;24.00;91.10
7016;DHT22;3548;48.402;9.990;2023-05-07T12:52:55;24.00;90.40
7016;DHT22;3548;48.402;9.990;2023-05-07T12:55:21;24.10;90.30
7016;DHT22;3548;48.402;9.990;2023-05-07T12:57:50;24.10;90.10
7016;DHT22;3548;48.402;9.990;2023-05-07T13:00:17;24.00;90.30
7016;DHT22;3548;48.402;9.990;2023-05-07T13:02:44;24.00;90.00
7016;DHT22;3548;48.402;9.990;2023-05-07T13:05:10;24.00;89.10
7016;DHT22;3548;48.402;9.990;2023-05-07T13:07:36;23.90;88.70
7016;DHT22;3548;48.402;9.990;2023-05-07T13:10:03;23.90;88.90
7016;DHT22;3548;48.402;9.990;2023-05-07T13:12:29;23.90;89.50
7016;DHT22;3548;48.402;9.990;2023-05-07T13:14:54;23.90;89.70
7016;DHT22;3548;48.402;9.990;2023-05-07T13:17:20;24.00;90.10
7016;DHT22;3548;48.402;9.990;2023-05-07T13:19:46;23.90;89.30
7016;DHT22;3548;48.402;9.990;2023-05-07T13:22:11;23.80;88.30
7016;DHT22;3548;48.402;9.990;2023-05-07T13:24:37;23.60;88.20
7016;DHT22;3548;48.402;9.990;2023-05-07T13:27:02;23.50;88.50
7016;DHT22;3548;48.402;9.990;2023-05-07T13:29:28;23.30;89.10
7016;DHT22;3548;48.402;9.990;2023-05-07T13:31:56;23.30;90.00
7016;DHT22;3548;48.402;9.990;2023-05-07T13:34:22;23.30;89.80
7016;DHT22;3548;48.402;9.990;2023-05-07T13:36:48;23.40;88.70
7016;DHT22;3548;48.402;9.990;2023-05-07T13:39:13;23.30;87.80
7016;DHT22;3548;48.402;9.990;2023-05-07T13:41:39;23.30;87.60
7016;DHT22;3548;48.402;9.990;2023-05-07T13:44:05;23.30;87.70
7016;DHT22;3548;48.402;9.990;2023-05-07T13:46:30;23.20;87.60
7016;DHT22;3548;48.402;9.990;2023-05-07T13:48:56;23.30;87.80
7016;DHT22;3548;48.402;9.990;2023-05-07T13:51:22;23.40;87.50
7016;DHT22;3548;48.402;9.990;2023-05-07T13:53:47;23.40;86.60
7016;DHT22;3548;48.402;9.990;2023-05-07T13:56:14;23.30;86.80
7016;DHT22;3548;48.402;9.990;2023-05-07T13:58:39;23.10;87.90
7016;DHT22;3548;48.402;9.990;2023-05-07T14:01:05;22.90;88.70
7016;DHT22;3548;48.402;9.990;2023-05-07T14:03:31;22.80;89.40
7016;DHT22;3548;48.402;9.990;2023-05-07T14:05:58;22.70;88.80
7016;DHT22;3548;48.402;9.990;2023-05-07T14:08:25;22.50;89.40
7016;DHT22;3548;48.402;9.990;2023-05-07T14:10:51;22.40;89.40
7016;DHT22;3548;48.402;9.990;2023-05-07T14:13:17;22.40;90.70
7016;DHT22;3548;48.402;9.990;2023-05-07T14:15:43;22.40;90.20
7016;DHT22;3548;48.402;9.990;2023-05-07T14:18:15;22.40;90.30
7016;DHT22;3548;48.402;9.990;2023-05-07T14:20:41;22.30;90.30
7016;DHT22;3548;48.402;9.990;2023-05-07T14:23:08;22.30;90.50
7016;DHT22;3548;48.402;9.990;2023-05-07T14:25:34;22.30;90.30
7016;DHT22;3548;48.402;9.990;2023-05-07T14:27:59;22.20;90.40
7016;DHT22;3548;48.402;9.990;2023-05-07T14:30:25;22.10;90.60
7016;DHT22;3548;48.402;9.990;2023-05-07T14:32:51;22.00;90.80
7016;DHT22;3548;48.402;9.990;2023-05-07T14:35:16;21.90;91.20
7016;DHT22;3548;48.402;9.990;2023-05-07T14:37:43;21.90;91.00
7016;DHT22;3548;48.402;9.990;2023-05-07T14:40:09;21.80;91.10
7016;DHT22;3548;48.402;9.990;2023-05-07T14:42:35;21.70;91.10
7016;DHT22;3548;48.402;9.990;2023-05-07T14:45:01;21.70;91.30
7016;DHT22;3548;48.402;9.990;2023-05-07T14:47:27;21.70;92.00
7016;DHT22;3548;48.402;9.990;2023-05-07T14:49:52;21.60;91.40
7016;DHT22;3548;48.402;9.990;2023-05-07T14:52:18;21.60;91.40
7016;DHT22;3548;48.402;9.990;2023-05-07T14:54:44;21.60;91.50
7016;DHT22;3548;48.402;9.990;2023-05-07T14:57:10;21.40;91.40
7016;DHT22;3548;48.402;9.990;2023-05-07T14:59:38;21.40;91.40
7016;DHT22;3548;48.402;9.990;2023-05-07T15:02:05;21.30;91.60
7016;DHT22;3548;48.402;9.990;2023-05-07T15:04:33;21.30;91.90
7016;DHT22;3548;48.402;9.990;2023-05-07T15:06:59;21.30;92.10
7016;DHT22;3548;48.402;9.990;2023-05-07T15:09:25;21.20;92.20
7016;DHT22;3548;48.402;9.990;2023-05-07T15:11:50;21.30;92.50
7016;DHT22;3548;48.402;9.990;2023-05-07T15:14:16;21.20;92.40
7016;DHT22;3548;48.402;9.990;2023-05-07T15:16:42;21.20;92.40
7016;DHT22;3548;48.402;9.990;2023-05-07T15:19:07;21.10;92.70
7016;DHT22;3548;48.402;9.990;2023-05-07T15:21:33;21.00;93.00
7016;DHT22;3548;48.402;9.990;2023-05-07T15:24:00;20.90;93.30
7016;DHT22;3548;48.402;9.990;2023-05-07T15:26:26;20.90;93.60
7016;DHT22;3548;48.402;9.990;2023-05-07T15:28:51;20.80;94.00
7016;DHT22;3548;48.402;9.990;2023-05-07T15:31:17;20.80;94.40
7016;DHT22;3548;48.402;9.990;2023-05-07T15:33:43;20.70;94.80
7016;DHT22;3548;48.402;9.990;2023-05-07T15:36:08;20.60;95.00
7016;DHT22;3548;48.402;9.990;2023-05-07T15:38:34;20.50;95.30
7016;DHT22;3548;48.402;9.990;2023-05-07T15:41:00;20.50;95.60
7016;DHT22;3548;48.402;9.990;2023-05-07T15:43:25;20.40;95.80
7016;DHT22;3548;48.402;9.990;2023-05-07T15:45:51;20.40;96.10
7016;DHT22;3548;48.402;9.990;2023-05-07T15:48:16;20.40;96.70
7016;DHT22;3548;48.402;9.990;2023-05-07T15:50:42;20.40;97.50
7016;DHT22;3548;48.402;9.990;2023-05-07T15:53:07;20.30;99.20
7016;DHT22;3548;48.402;9.990;2023-05-07T15:55:33;20.10;99.90
7016;DHT22;3548;48.402;9.990;2023-05-07T15:57:59;19.80;99.90
7016;DHT22;3548;48.402;9.990;2023-05-07T16:00:26;19.40;99.90
7016;DHT22;3548;48.402;9.990;2023-05-07T16:02:53;19.00;99.90
7016;DHT22;3548;48.402;9.990;2023-05-07T16:05:18;18.60;99.90
7016;DHT22;3548;48.402;9.990;2023-05-07T16:07:44;18.10;99.90
7016;DHT22;3548;48.402;9.990;2023-05-07T16:10:10;17.80;99.90
7016;DHT22;3548;48.402;9.990;2023-05-07T16:12:36;17.40;99.90
7016;DHT22;3548;48.402;9.990;2023-05-07T16:15:02;17.10;99.90
7016;DHT22;3548;48.402;9.990;2023-05-07T16:17:27;16.80;99.90